createdAt,value
2022-08-30T00:00:38.300Z,6.70
2022-08-30T00:01:15.210Z,7.07
2022-08-30T00:01:50.197Z,6.50
2022-08-30T00:02:25.223Z,6.72
2022-08-30T00:03:01.724Z,7.07
2022-08-30T00:03:38.858Z,6.32
2022-08-30T00:04:13.687Z,7.03
2022-08-30T00:04:46.833Z,7.03
2022-08-30T00:05:22.202Z,7.25
2022-08-30T00:05:56.660Z,7.18
2022-08-30T00:06:33.132Z,6.53
2022-08-30T00:07:06.852Z,7.18
2022-08-30T00:07:41.624Z,6.95
2022-08-30T00:08:16.564Z,6.35
2022-08-30T00:08:51.120Z,6.65
2022-08-30T00:09:27.568Z,6.95
2022-08-30T00:10:02.739Z,7.30
2022-08-30T00:10:37.296Z,7.20
2022-08-30T00:11:13.295Z,6.97
2022-08-30T00:11:47.014Z,7.43
2022-08-30T00:12:21.785Z,7.28
2022-08-30T00:12:58.560Z,6.90
2022-08-30T00:13:32.888Z,6.75
2022-08-30T00:14:07.935Z,6.50
2022-08-30T00:14:41.273Z,6.57
2022-08-30T00:15:16.368Z,7.25
2022-08-30T00:15:51.312Z,6.55
2022-08-30T00:16:25.647Z,6.70
2022-08-30T00:16:58.767Z,7.88
2022-08-30T00:17:33.328Z,7.10
2022-08-30T00:18:08.056Z,7.30
2022-08-30T00:18:42.878Z,7.65
2022-08-30T00:19:18.978Z,7.32
2022-08-30T00:19:53.427Z,6.72
2022-08-30T00:20:30.345Z,6.97
2022-08-30T00:21:07.107Z,6.93
2022-08-30T00:21:41.718Z,7.07
2022-08-30T00:22:16.168Z,7.30
2022-08-30T00:22:51.416Z,7.63
2022-08-30T00:23:26.798Z,8.20
2022-08-30T00:23:59.845Z,6.88
2022-08-30T00:24:36.085Z,6.78
2022-08-30T00:25:11.348Z,7.25
2022-08-30T00:25:46.142Z,6.78
2022-08-30T00:26:20.419Z,6.78
2022-08-30T00:26:54.562Z,6.75
2022-08-30T00:27:28.746Z,6.90
2022-08-30T00:28:03.202Z,7.10
2022-08-30T00:28:36.421Z,7.10
2022-08-30T00:29:10.478Z,6.40
2022-08-30T00:29:45.090Z,7.10
2022-08-30T00:30:19.961Z,6.88
2022-08-30T00:30:54.247Z,6.53
2022-08-30T00:31:28.772Z,7.53
2022-08-30T00:32:02.894Z,6.28
2022-08-30T00:32:37.100Z,6.97
2022-08-30T00:33:13.197Z,6.68
2022-08-30T00:33:47.408Z,7.18
2022-08-30T00:34:21.978Z,6.85
2022-08-30T00:34:57.071Z,7.50
2022-08-30T00:35:30.811Z,7.50
2022-08-30T00:36:05.577Z,7.07
2022-08-30T00:36:40.365Z,7.63
2022-08-30T00:37:14.043Z,6.82
2022-08-30T00:37:48.654Z,6.38
2022-08-30T00:38:25.259Z,6.80
2022-08-30T00:38:59.150Z,6.82
2022-08-30T00:39:36.988Z,6.60
2022-08-30T00:40:12.757Z,7.30
2022-08-30T00:40:48.517Z,7.10
2022-08-30T00:41:24.308Z,5.93
2022-08-30T00:41:59.160Z,6.57
2022-08-30T00:42:33.102Z,6.68
2022-08-30T00:43:14.117Z,6.60
2022-08-30T00:43:47.942Z,6.78
2022-08-30T00:44:20.745Z,6.82
2022-08-30T00:44:55.193Z,7.45
2022-08-30T00:45:30.366Z,6.75
2022-08-30T00:46:04.865Z,6.97
2022-08-30T00:46:40.350Z,6.80
2022-08-30T00:47:14.773Z,6.82
2022-08-30T00:47:48.972Z,7.13
2022-08-30T00:48:23.742Z,6.80
2022-08-30T00:48:57.853Z,6.78
2022-08-30T00:49:31.992Z,6.53
2022-08-30T00:50:09.237Z,6.45
2022-08-30T00:50:45.981Z,7.07
2022-08-30T00:51:22.556Z,7.10
2022-08-30T00:51:56.441Z,6.97
2022-08-30T00:52:30.373Z,7.05
2022-08-30T00:53:07.867Z,7.72
2022-08-30T00:53:43.706Z,7.05
2022-08-30T00:54:17.563Z,7.22
2022-08-30T00:54:54.318Z,6.80
2022-08-30T00:55:29.275Z,7.82
2022-08-30T00:56:04.609Z,6.95
2022-08-30T00:56:39.569Z,6.90
2022-08-30T00:57:14.603Z,6.85
2022-08-30T00:57:49.878Z,7.47
2022-08-30T00:58:26.799Z,7.10
2022-08-30T00:59:03.336Z,6.82
2022-08-30T00:59:36.900Z,7.30
2022-08-30T01:00:15.536Z,7.05
2022-08-30T01:00:54.626Z,7.32
2022-08-30T01:01:31.775Z,7.25
2022-08-30T01:02:08.268Z,7.13
2022-08-30T01:02:42.739Z,6.82
2022-08-30T01:03:18.592Z,6.82
2022-08-30T01:03:52.888Z,7.43
2022-08-30T01:04:27.089Z,7.15
2022-08-30T01:05:02.548Z,7.15
2022-08-30T01:05:39.317Z,7.10
2022-08-30T01:06:15.743Z,6.82
2022-08-30T01:06:50.817Z,6.45
2022-08-30T01:07:24.602Z,6.70
2022-08-30T01:07:58.989Z,7.63
2022-08-30T01:08:34.543Z,7.38
2022-08-30T01:09:08.572Z,7.78
2022-08-30T01:09:42.331Z,6.97
2022-08-30T01:10:19.369Z,6.95
2022-08-30T01:10:53.548Z,7.20
2022-08-30T01:11:27.373Z,6.80
2022-08-30T01:12:02.216Z,7.05
2022-08-30T01:12:37.428Z,7.03
2022-08-30T01:13:10.868Z,6.75
2022-08-30T01:13:48.263Z,7.18
2022-08-30T01:14:25.995Z,8.20
2022-08-30T01:15:00.892Z,7.38
2022-08-30T01:15:37.045Z,7.22
2022-08-30T01:16:11.555Z,7.40
2022-08-30T01:16:47.277Z,7.32
2022-08-30T01:17:23.363Z,7.60
2022-08-30T01:17:58.324Z,7.88
2022-08-30T01:18:32.237Z,7.28
2022-08-30T01:19:08.365Z,7.57
2022-08-30T01:19:48.304Z,7.85
2022-08-30T01:20:25.630Z,7.78
2022-08-30T01:21:04.437Z,7.28
2022-08-30T01:21:43.886Z,7.57
2022-08-30T01:22:20.049Z,7.05
2022-08-30T01:23:11.867Z,7.93
2022-08-30T01:23:47.491Z,7.57
2022-08-30T01:24:22.874Z,7.28
2022-08-30T01:24:58.927Z,7.25
2022-08-30T01:25:33.194Z,7.15
2022-08-30T01:26:06.966Z,6.90
2022-08-30T01:26:41.682Z,7.57
2022-08-30T01:27:16.558Z,7.45
2022-08-30T01:27:52.961Z,7.30
2022-08-30T01:28:29.545Z,6.72
2022-08-30T01:29:04.422Z,7.38
2022-08-30T01:29:37.513Z,6.53
2022-08-30T01:30:12.801Z,7.20
2022-08-30T01:30:47.299Z,7.97
2022-08-30T01:31:22.202Z,7.00
2022-08-30T01:31:57.896Z,7.05
2022-08-30T01:32:32.045Z,6.97
2022-08-30T01:33:06.604Z,6.95
2022-08-30T01:33:40.759Z,8.02
2022-08-30T01:34:15.295Z,7.43
2022-08-30T01:34:50.306Z,7.47
2022-08-30T01:35:24.676Z,7.47
2022-08-30T01:36:00.251Z,6.40
2022-08-30T01:36:35.326Z,6.82
2022-08-30T01:37:08.492Z,7.13
2022-08-30T01:37:42.571Z,6.63
2022-08-30T01:38:19.644Z,7.72
2022-08-30T01:38:53.591Z,7.57
2022-08-30T01:39:27.231Z,7.32
2022-08-30T01:40:03.126Z,7.63
2022-08-30T01:40:37.703Z,7.20
2022-08-30T01:41:12.079Z,7.80
2022-08-30T01:41:46.935Z,6.47
2022-08-30T01:42:20.591Z,7.63
2022-08-30T01:42:55.812Z,7.63
2022-08-30T01:43:30.261Z,7.30
2022-08-30T01:44:06.996Z,6.95
2022-08-30T01:44:41.550Z,7.18
2022-08-30T01:45:17.464Z,6.85
2022-08-30T01:45:51.616Z,7.40
2022-08-30T01:46:27.747Z,7.03
2022-08-30T01:47:02.251Z,6.70
2022-08-30T01:47:36.555Z,7.35
2022-08-30T01:48:10.772Z,6.97
2022-08-30T01:48:54.031Z,7.72
2022-08-30T01:49:29.058Z,7.47
2022-08-30T01:50:02.934Z,7.40
2022-08-30T01:50:37.847Z,7.10
2022-08-30T01:51:16.290Z,6.72
2022-08-30T01:51:50.160Z,7.03
2022-08-30T01:52:35.534Z,6.53
2022-08-30T01:53:08.958Z,7.57
2022-08-30T01:53:49.923Z,6.82
2022-08-30T01:54:24.724Z,7.80
2022-08-30T01:55:03.905Z,7.60
2022-08-30T01:55:38.874Z,7.25
2022-08-30T01:56:14.169Z,7.30
2022-08-30T01:56:48.607Z,7.32
2022-08-30T01:57:23.769Z,8.38
2022-08-30T01:57:59.216Z,7.13
2022-08-30T01:58:33.440Z,7.95
2022-08-30T01:59:06.883Z,7.70
2022-08-30T01:59:43.482Z,7.78
2022-08-30T02:00:23.691Z,6.70
2022-08-30T02:00:58.414Z,8.00
2022-08-30T02:01:36.505Z,6.97
2022-08-30T02:02:10.010Z,7.20
2022-08-30T02:02:44.139Z,6.82
2022-08-30T02:03:19.957Z,6.93
2022-08-30T02:03:55.449Z,7.35
2022-08-30T02:04:30.458Z,7.63
2022-08-30T02:05:04.963Z,6.90
2022-08-30T02:05:38.329Z,7.35
2022-08-30T02:06:13.999Z,7.20
2022-08-30T02:06:48.351Z,7.63
2022-08-30T02:07:22.585Z,7.60
2022-08-30T02:07:56.980Z,6.80
2022-08-30T02:08:30.703Z,7.50
2022-08-30T02:09:09.553Z,7.80
2022-08-30T02:09:44.524Z,7.68
2022-08-30T02:10:21.539Z,7.72
2022-08-30T02:10:55.084Z,7.95
2022-08-30T02:11:30.352Z,7.35
2022-08-30T02:12:05.354Z,7.28
2022-08-30T02:12:38.827Z,7.40
2022-08-30T02:13:13.978Z,8.18
2022-08-30T02:13:47.895Z,7.57
2022-08-30T02:14:21.230Z,7.05
2022-08-30T02:14:56.410Z,7.63
2022-08-30T02:15:30.157Z,6.82
2022-08-30T02:16:09.008Z,7.07
2022-08-30T02:16:44.326Z,7.43
2022-08-30T02:17:17.157Z,7.65
2022-08-30T02:17:50.199Z,7.68
2022-08-30T02:18:25.440Z,7.60
2022-08-30T02:18:59.429Z,7.30
2022-08-30T02:19:34.976Z,7.70
2022-08-30T02:20:10.841Z,6.85
2022-08-30T02:20:46.689Z,7.72
2022-08-30T02:21:20.906Z,7.43
2022-08-30T02:21:54.008Z,7.80
2022-08-30T02:22:30.000Z,7.68
2022-08-30T02:23:04.525Z,7.28
2022-08-30T02:23:38.313Z,7.40
2022-08-30T02:24:14.402Z,7.07
2022-08-30T02:24:48.623Z,7.60
2022-08-30T02:25:23.365Z,7.25
2022-08-30T02:25:58.326Z,7.85
2022-08-30T02:26:32.414Z,7.45
2022-08-30T02:27:06.632Z,7.72
2022-08-30T02:27:41.507Z,7.45
2022-08-30T02:28:18.530Z,7.30
2022-08-30T02:28:53.711Z,7.40
2022-08-30T02:29:30.434Z,8.40
2022-08-30T02:30:05.759Z,8.00
2022-08-30T02:30:39.264Z,7.53
2022-08-30T02:31:14.417Z,7.93
2022-08-30T02:31:48.285Z,8.90
2022-08-30T02:32:21.396Z,7.82
2022-08-30T02:32:55.640Z,7.43
2022-08-30T02:33:29.804Z,7.82
2022-08-30T02:34:04.503Z,7.47
2022-08-30T02:34:39.885Z,7.80
2022-08-30T02:35:13.818Z,7.30
2022-08-30T02:35:48.285Z,7.65
2022-08-30T02:36:24.207Z,8.10
2022-08-30T02:36:57.626Z,8.20
2022-08-30T02:37:30.735Z,6.55
2022-08-30T02:38:06.335Z,7.38
2022-08-30T02:38:39.502Z,7.65
2022-08-30T02:39:15.048Z,7.70
2022-08-30T02:39:49.634Z,7.85
2022-08-30T02:40:23.811Z,8.00
2022-08-30T02:40:57.402Z,7.25
2022-08-30T02:41:32.201Z,8.32
2022-08-30T02:42:05.744Z,7.43
2022-08-30T02:42:42.514Z,7.93
2022-08-30T02:43:17.554Z,7.72
2022-08-30T02:43:52.089Z,8.18
2022-08-30T02:44:26.199Z,8.40
2022-08-30T02:45:00.809Z,7.65
2022-08-30T02:45:34.415Z,7.70
2022-08-30T02:46:09.531Z,8.20
2022-08-30T02:46:44.091Z,7.63
2022-08-30T02:47:18.232Z,7.80
2022-08-30T02:47:52.349Z,7.70
2022-08-30T02:48:28.437Z,8.45
2022-08-30T02:49:29.847Z,8.65
2022-08-30T02:49:58.469Z,7.30
2022-08-30T02:50:32.822Z,7.60
2022-08-30T02:51:07.168Z,8.10
2022-08-30T02:51:45.328Z,8.23
2022-08-30T02:52:20.716Z,8.23
2022-08-30T02:53:02.258Z,7.97
2022-08-30T02:53:36.765Z,8.25
2022-08-30T02:54:10.623Z,7.68
2022-08-30T02:54:47.224Z,7.65
2022-08-30T02:55:22.140Z,7.85
2022-08-30T02:55:56.034Z,8.10
2022-08-30T02:56:33.047Z,7.88
2022-08-30T02:57:20.352Z,8.40
2022-08-30T02:57:56.187Z,8.35
2022-08-30T02:58:30.628Z,8.18
2022-08-30T02:59:03.988Z,8.13
2022-08-30T02:59:45.036Z,7.35
2022-08-30T03:00:21.359Z,7.63
2022-08-30T03:00:59.761Z,7.50
2022-08-30T03:01:36.549Z,8.02
2022-08-30T03:02:09.656Z,7.93
2022-08-30T03:02:44.751Z,8.13
2022-08-30T03:03:19.103Z,8.07
2022-08-30T03:03:54.189Z,7.15
2022-08-30T03:04:27.565Z,8.23
2022-08-30T03:05:01.760Z,7.90
2022-08-30T03:05:39.565Z,9.68
2022-08-30T03:06:13.717Z,7.93
2022-08-30T03:07:39.968Z,8.65
2022-08-30T03:08:13.961Z,9.15
2022-08-30T03:08:49.861Z,9.13
2022-08-30T03:09:24.482Z,8.95
2022-08-30T03:10:00.256Z,7.78
2022-08-30T03:10:35.768Z,7.88
2022-08-30T03:11:11.147Z,9.80
2022-08-30T03:11:46.252Z,10.23
2022-08-30T03:12:21.945Z,8.55
2022-08-30T03:12:56.946Z,8.32
2022-08-30T03:13:31.350Z,8.70
2022-08-30T03:14:07.483Z,7.78
2022-08-30T03:14:41.199Z,8.43
2022-08-30T03:15:15.467Z,8.07
2022-08-30T03:15:51.389Z,7.68
2022-08-30T03:16:24.484Z,7.55
2022-08-30T03:16:59.545Z,8.02
2022-08-30T03:17:32.972Z,8.20
2022-08-30T03:18:07.461Z,7.57
2022-08-30T03:18:44.180Z,9.75
2022-08-30T03:19:18.597Z,7.63
2022-08-30T03:19:52.566Z,8.07
2022-08-30T03:20:28.606Z,7.43
2022-08-30T03:21:02.517Z,10.63
2022-08-30T03:21:37.391Z,8.27
2022-08-30T03:22:12.187Z,7.88
2022-08-30T03:22:46.313Z,8.20
2022-08-30T03:23:21.911Z,7.55
2022-08-30T03:23:57.871Z,8.60
2022-08-30T03:24:31.589Z,8.40
2022-08-30T03:25:07.479Z,8.27
2022-08-30T03:25:42.671Z,8.05
2022-08-30T03:26:17.947Z,8.07
2022-08-30T03:26:51.274Z,7.70
2022-08-30T03:27:26.130Z,7.47
2022-08-30T03:28:00.466Z,8.20
2022-08-30T03:28:34.785Z,8.02
2022-08-30T03:29:09.675Z,7.80
2022-08-30T03:29:47.235Z,7.75
2022-08-30T03:30:21.537Z,8.73
2022-08-30T03:30:57.053Z,8.27
2022-08-30T03:31:31.032Z,7.88
2022-08-30T03:32:15.404Z,9.55
2022-08-30T03:32:50.716Z,8.80
2022-08-30T03:33:26.198Z,8.68
2022-08-30T03:34:01.869Z,8.50
2022-08-30T03:34:36.593Z,7.28
2022-08-30T03:35:10.949Z,7.82
2022-08-30T03:35:46.132Z,8.85
2022-08-30T03:36:22.010Z,9.90
2022-08-30T03:36:57.278Z,9.40
2022-08-30T03:37:31.417Z,9.00
2022-08-30T03:38:07.390Z,8.65
2022-08-30T03:38:41.444Z,8.48
2022-08-30T03:39:16.810Z,8.75
2022-08-30T03:39:52.560Z,7.97
2022-08-30T03:40:29.543Z,8.23
2022-08-30T03:41:05.858Z,9.32
2022-08-30T03:41:43.137Z,8.18
2022-08-30T03:42:17.941Z,9.80
2022-08-30T03:42:52.409Z,7.65
2022-08-30T03:43:26.824Z,8.82
2022-08-30T03:44:01.239Z,8.93
2022-08-30T03:44:37.250Z,8.95
2022-08-30T03:45:13.939Z,8.35
2022-08-30T03:45:49.531Z,8.55
2022-08-30T03:46:24.643Z,8.95
2022-08-30T03:47:04.261Z,8.90
2022-08-30T03:47:38.184Z,8.80
2022-08-30T03:48:15.426Z,9.38
2022-08-30T03:48:52.486Z,8.77
2022-08-30T03:49:26.708Z,9.30
2022-08-30T03:50:01.022Z,9.20
2022-08-30T03:50:36.191Z,8.77
2022-08-30T03:51:10.856Z,11.10
2022-08-30T03:51:44.726Z,9.20
2022-08-30T03:52:19.701Z,9.77
2022-08-30T03:52:53.400Z,9.25
2022-08-30T03:53:27.405Z,9.63
2022-08-30T03:54:02.307Z,8.60
2022-08-30T03:54:37.916Z,9.18
2022-08-30T03:55:11.924Z,8.95
2022-08-30T03:55:47.764Z,8.70
2022-08-30T03:56:22.831Z,11.35
2022-08-30T03:56:56.454Z,9.07
2022-08-30T03:57:30.849Z,8.80
2022-08-30T03:58:04.507Z,8.80
2022-08-30T03:58:38.201Z,9.32
2022-08-30T03:59:13.573Z,8.82
2022-08-30T03:59:48.200Z,8.15
2022-08-30T04:00:22.361Z,8.77
2022-08-30T04:00:57.831Z,8.40
2022-08-30T04:01:32.344Z,9.13
2022-08-30T04:02:06.474Z,9.57
2022-08-30T04:02:42.392Z,9.30
2022-08-30T04:03:16.494Z,9.00
2022-08-30T04:03:51.828Z,9.55
2022-08-30T04:04:27.200Z,11.00
2022-08-30T04:05:01.493Z,9.77
2022-08-30T04:05:35.753Z,9.15
2022-08-30T04:06:10.015Z,13.27
2022-08-30T04:06:44.438Z,10.65
2022-08-30T04:07:21.478Z,10.23
2022-08-30T04:07:54.538Z,10.93
2022-08-30T04:08:29.204Z,9.55
2022-08-30T04:09:03.573Z,9.63
2022-08-30T04:09:38.304Z,11.48
2022-08-30T04:10:12.718Z,9.50
2022-08-30T04:10:49.774Z,8.63
2022-08-30T04:11:23.868Z,9.40
2022-08-30T04:11:58.378Z,9.15
2022-08-30T04:12:34.145Z,9.75
2022-08-30T04:13:07.908Z,9.05
2022-08-30T04:13:42.119Z,8.93
2022-08-30T04:14:17.019Z,9.73
2022-08-30T04:14:51.444Z,10.18
2022-08-30T04:15:25.742Z,9.60
2022-08-30T04:16:00.598Z,9.43
2022-08-30T04:16:34.099Z,9.30
2022-08-30T04:17:08.823Z,9.43
2022-08-30T04:17:41.918Z,9.05
2022-08-30T04:18:16.559Z,9.57
2022-08-30T04:18:51.681Z,9.90
2022-08-30T04:19:26.161Z,8.93
2022-08-30T04:20:00.446Z,10.18
2022-08-30T04:20:35.968Z,9.18
2022-08-30T04:21:12.352Z,9.80
2022-08-30T04:21:47.776Z,9.90
2022-08-30T04:22:22.613Z,10.15
2022-08-30T04:22:57.048Z,9.95
2022-08-30T04:23:32.139Z,11.45
2022-08-30T04:24:06.079Z,10.32
2022-08-30T04:24:42.418Z,9.85
2022-08-30T04:25:18.091Z,10.23
2022-08-30T04:25:54.435Z,9.98
2022-08-30T04:26:30.350Z,11.48
2022-08-30T04:27:03.476Z,9.73
2022-08-30T04:27:38.574Z,10.23
2022-08-30T04:28:13.450Z,10.20
2022-08-30T04:28:47.644Z,9.68
2022-08-30T04:29:21.234Z,9.98
2022-08-30T04:29:57.234Z,9.05
2022-08-30T04:30:31.227Z,13.70
2022-08-30T04:31:11.707Z,10.90
2022-08-30T04:31:46.664Z,10.75
2022-08-30T04:32:21.959Z,9.23
2022-08-30T04:32:58.784Z,9.90
2022-08-30T04:33:36.509Z,9.25
2022-08-30T04:34:12.209Z,9.88
2022-08-30T04:34:46.059Z,9.35
2022-08-30T04:35:25.920Z,9.40
2022-08-30T04:36:05.856Z,9.60
2022-08-30T04:36:40.975Z,10.25
2022-08-30T04:37:15.202Z,9.63
2022-08-30T04:37:50.314Z,9.43
2022-08-30T04:38:28.678Z,9.73
2022-08-30T04:39:04.722Z,9.77
2022-08-30T04:39:39.670Z,9.45
2022-08-30T04:40:15.494Z,9.88
2022-08-30T04:40:50.149Z,10.10
2022-08-30T04:41:26.700Z,10.90
2022-08-30T04:42:04.015Z,9.77
2022-08-30T04:42:38.505Z,10.57
2022-08-30T04:43:13.588Z,10.70
2022-08-30T04:43:51.343Z,10.45
2022-08-30T04:44:27.473Z,9.85
2022-08-30T04:45:03.637Z,10.65
2022-08-30T04:45:40.945Z,10.05
2022-08-30T04:46:15.334Z,9.18
2022-08-30T04:46:50.025Z,9.95
2022-08-30T04:47:24.728Z,9.52
2022-08-30T04:47:58.251Z,10.40
2022-08-30T04:48:32.820Z,10.45
2022-08-30T04:49:07.277Z,9.63
2022-08-30T04:49:43.246Z,9.65
2022-08-30T04:50:19.339Z,10.40
2022-08-30T04:50:55.080Z,10.70
2022-08-30T04:51:29.336Z,10.45
2022-08-30T04:52:03.993Z,10.57
2022-08-30T04:52:38.698Z,10.32
2022-08-30T04:53:13.360Z,10.35
2022-08-30T04:53:46.809Z,10.38
2022-08-30T04:54:21.471Z,10.90
2022-08-30T04:54:57.246Z,10.30
2022-08-30T04:55:31.548Z,10.10
2022-08-30T04:56:08.729Z,10.20
2022-08-30T04:56:46.477Z,10.45
2022-08-30T04:57:20.463Z,10.98
2022-08-30T04:57:54.939Z,12.02
2022-08-30T04:58:29.488Z,10.95
2022-08-30T04:59:03.327Z,11.93
2022-08-30T04:59:37.397Z,10.75
2022-08-30T05:00:13.694Z,11.43
2022-08-30T05:00:47.769Z,11.00
2022-08-30T05:01:24.995Z,10.82
2022-08-30T05:01:59.372Z,11.18
2022-08-30T05:02:33.929Z,11.27
2022-08-30T05:03:08.760Z,11.18
2022-08-30T05:03:43.583Z,11.40
2022-08-30T05:04:18.552Z,11.07
2022-08-30T05:05:10.086Z,11.07
2022-08-30T05:05:50.160Z,10.60
2022-08-30T05:06:24.105Z,11.02
2022-08-30T05:06:58.458Z,11.60
2022-08-30T05:07:33.097Z,10.80
2022-08-30T05:08:06.260Z,10.82
2022-08-30T05:08:40.325Z,11.32
2022-08-30T05:09:21.706Z,11.02
2022-08-30T05:09:55.242Z,11.23
2022-08-30T05:10:30.377Z,10.82
2022-08-30T05:11:06.362Z,11.65
2022-08-30T05:11:39.851Z,11.95
2022-08-30T05:12:15.928Z,11.82
2022-08-30T05:12:51.165Z,11.00
2022-08-30T05:13:35.274Z,10.35
2022-08-30T05:14:11.099Z,11.32
2022-08-30T05:14:46.289Z,10.48
2022-08-30T05:15:20.991Z,10.48
2022-08-30T05:15:55.825Z,11.63
2022-08-30T05:16:32.211Z,11.70
2022-08-30T05:17:06.755Z,11.77
2022-08-30T05:17:40.538Z,11.20
2022-08-30T05:18:15.979Z,11.25
2022-08-30T05:18:50.918Z,13.00
2022-08-30T05:19:25.645Z,12.25
2022-08-30T05:19:59.281Z,13.25
2022-08-30T05:20:32.325Z,12.77
2022-08-30T05:21:09.337Z,13.82
2022-08-30T05:21:43.208Z,12.88
2022-08-30T05:22:16.909Z,11.60
2022-08-30T05:22:53.858Z,11.13
2022-08-30T05:23:28.614Z,11.18
2022-08-30T05:24:04.551Z,11.40
2022-08-30T05:24:38.669Z,11.38
2022-08-30T05:25:14.800Z,11.90
2022-08-30T05:25:49.608Z,12.98
2022-08-30T05:26:25.073Z,12.32
2022-08-30T05:27:01.076Z,11.98
2022-08-30T05:27:37.201Z,12.35
2022-08-30T05:28:12.900Z,12.18
2022-08-30T05:28:47.920Z,12.25
2022-08-30T05:29:23.818Z,11.68
2022-08-30T05:29:58.245Z,11.98
2022-08-30T05:30:35.635Z,18.10
2022-08-30T05:31:15.287Z,11.63
2022-08-30T05:31:50.818Z,11.13
2022-08-30T05:32:24.853Z,11.18
2022-08-30T05:32:58.939Z,12.35
2022-08-30T05:33:36.279Z,11.38
2022-08-30T05:34:12.917Z,11.13
2022-08-30T05:34:47.165Z,11.82
2022-08-30T05:35:25.968Z,11.40
2022-08-30T05:36:01.756Z,12.93
2022-08-30T05:36:36.808Z,12.65
2022-08-30T05:37:12.143Z,11.80
2022-08-30T05:37:45.926Z,12.13
2022-08-30T05:38:19.538Z,12.52
2022-08-30T05:38:55.612Z,11.80
2022-08-30T05:39:29.614Z,12.68
2022-08-30T05:40:21.378Z,12.35
2022-08-30T05:40:55.463Z,11.10
2022-08-30T05:41:30.293Z,12.07
2022-08-30T05:42:05.103Z,11.30
2022-08-30T05:42:42.057Z,11.35
2022-08-30T05:43:16.246Z,12.70
2022-08-30T05:43:50.399Z,12.38
2022-08-30T05:44:25.928Z,12.18
2022-08-30T05:45:01.565Z,12.10
2022-08-30T05:45:35.575Z,13.32
2022-08-30T05:46:11.087Z,12.50
2022-08-30T05:46:47.237Z,12.63
2022-08-30T05:47:20.993Z,11.43
2022-08-30T05:47:56.589Z,11.68
2022-08-30T05:48:30.352Z,11.98
2022-08-30T05:49:05.371Z,12.15
2022-08-30T05:49:40.705Z,11.35
2022-08-30T05:50:15.160Z,11.82
2022-08-30T05:50:49.341Z,12.07
2022-08-30T05:51:23.604Z,12.98
2022-08-30T05:51:57.610Z,12.73
2022-08-30T05:52:32.561Z,11.82
2022-08-30T05:53:06.161Z,11.90
2022-08-30T05:53:42.801Z,11.70
2022-08-30T05:54:17.044Z,12.25
2022-08-30T05:54:53.804Z,11.65
2022-08-30T05:55:28.826Z,12.02
2022-08-30T05:56:03.601Z,11.90
2022-08-30T05:56:40.020Z,11.20
2022-08-30T05:57:15.531Z,11.82
2022-08-30T05:57:51.076Z,11.95
2022-08-30T05:58:25.236Z,12.13
2022-08-30T05:58:59.052Z,11.55
2022-08-30T05:59:33.993Z,11.15
2022-08-30T06:00:10.154Z,11.45
2022-08-30T06:00:48.456Z,11.35
2022-08-30T06:01:23.220Z,11.95
2022-08-30T06:01:57.863Z,12.32
2022-08-30T06:02:32.181Z,11.88
2022-08-30T06:03:06.856Z,12.73
2022-08-30T06:03:40.533Z,11.32
2022-08-30T06:04:16.633Z,11.45
2022-08-30T06:04:50.310Z,12.38
2022-08-30T06:05:24.619Z,11.48
2022-08-30T06:06:00.179Z,11.45
2022-08-30T06:06:34.290Z,11.32
2022-08-30T06:07:11.655Z,11.38
2022-08-30T06:08:24.308Z,11.98
2022-08-30T06:08:59.298Z,12.18
2022-08-30T06:09:34.642Z,12.20
2022-08-30T06:10:08.913Z,11.73
2022-08-30T06:10:44.167Z,12.27
2022-08-30T06:11:21.459Z,11.73
2022-08-30T06:11:55.134Z,12.23
2022-08-30T06:12:30.641Z,11.55
2022-08-30T06:13:06.965Z,11.45
2022-08-30T06:13:41.211Z,12.15
2022-08-30T06:14:17.817Z,12.85
2022-08-30T06:14:52.008Z,11.60
2022-08-30T06:15:27.927Z,11.40
2022-08-30T06:16:04.302Z,11.43
2022-08-30T06:16:39.414Z,11.40
2022-08-30T06:17:12.440Z,11.85
2022-08-30T06:17:47.839Z,11.70
2022-08-30T06:18:28.268Z,12.35
2022-08-30T06:19:04.626Z,11.45
2022-08-30T06:19:40.231Z,11.18
2022-08-30T06:20:14.966Z,12.25
2022-08-30T06:20:50.832Z,11.18
2022-08-30T06:21:26.874Z,12.18
2022-08-30T06:22:01.721Z,11.65
2022-08-30T06:22:37.554Z,11.57
2022-08-30T06:23:11.038Z,10.43
2022-08-30T06:23:45.074Z,11.23
2022-08-30T06:24:35.779Z,12.20
2022-08-30T06:25:16.993Z,12.13
2022-08-30T06:25:52.239Z,11.93
2022-08-30T06:26:27.402Z,11.93
2022-08-30T06:27:02.245Z,11.07
2022-08-30T06:27:38.903Z,12.07
2022-08-30T06:28:14.039Z,12.23
2022-08-30T06:28:48.843Z,12.25
2022-08-30T06:29:24.203Z,11.23
2022-08-30T06:29:57.840Z,11.10
2022-08-30T06:30:32.521Z,13.30
2022-08-30T06:31:07.796Z,12.10
2022-08-30T06:31:43.423Z,12.40
2022-08-30T06:32:18.240Z,11.75
2022-08-30T06:32:53.001Z,11.65
2022-08-30T06:33:27.321Z,11.57
2022-08-30T06:34:01.603Z,10.85
2022-08-30T06:34:36.696Z,10.80
2022-08-30T06:35:11.856Z,11.40
2022-08-30T06:35:58.091Z,11.95
2022-08-30T06:36:33.159Z,11.73
2022-08-30T06:37:08.662Z,20.13
2022-08-30T06:37:43.937Z,12.75
2022-08-30T06:38:18.280Z,11.15
2022-08-30T06:38:54.415Z,12.02
2022-08-30T06:39:28.849Z,11.50
2022-08-30T06:40:03.819Z,11.63
2022-08-30T06:40:37.461Z,11.98
2022-08-30T06:41:12.760Z,11.43
2022-08-30T06:41:47.444Z,13.00
2022-08-30T06:42:32.726Z,12.75
2022-08-30T06:43:07.552Z,12.05
2022-08-30T06:43:48.120Z,12.48
2022-08-30T06:44:24.438Z,12.40
2022-08-30T06:44:59.264Z,10.77
2022-08-30T06:45:33.749Z,11.77
2022-08-30T06:46:09.611Z,10.98
2022-08-30T06:46:45.476Z,11.30
2022-08-30T06:47:19.736Z,11.82
2022-08-30T06:47:54.237Z,11.07
2022-08-30T06:48:29.959Z,13.30
2022-08-30T06:49:04.323Z,12.77
2022-08-30T06:49:38.748Z,11.82
2022-08-30T06:50:13.331Z,11.75
2022-08-30T06:50:47.511Z,11.35
2022-08-30T06:51:24.318Z,13.68
2022-08-30T06:51:57.424Z,15.50
2022-08-30T06:52:30.456Z,14.93
2022-08-30T06:53:06.691Z,14.68
2022-08-30T06:53:41.496Z,12.80
2022-08-30T06:54:16.125Z,10.98
2022-08-30T06:54:49.961Z,10.40
2022-08-30T06:55:26.907Z,10.55
2022-08-30T06:56:02.110Z,10.55
2022-08-30T06:56:36.831Z,10.35
2022-08-30T06:57:13.329Z,10.65
2022-08-30T06:57:47.605Z,10.75
2022-08-30T06:58:23.122Z,9.93
2022-08-30T06:58:58.805Z,11.43
2022-08-30T06:59:34.445Z,11.35
2022-08-30T07:00:09.194Z,10.27
2022-08-30T07:00:47.473Z,11.13
2022-08-30T07:01:23.246Z,10.52
2022-08-30T07:01:57.816Z,11.02
2022-08-30T07:02:33.004Z,10.70
2022-08-30T07:03:07.747Z,10.35
2022-08-30T07:03:42.777Z,10.60
2022-08-30T07:04:18.747Z,12.05
2022-08-30T07:04:52.676Z,10.38
2022-08-30T07:05:28.561Z,10.15
2022-08-30T07:06:02.589Z,12.55
2022-08-30T07:06:37.176Z,10.77
2022-08-30T07:07:14.276Z,9.95
2022-08-30T07:07:49.454Z,10.98
2022-08-30T07:08:24.156Z,10.65
2022-08-30T07:08:59.475Z,11.18
2022-08-30T07:09:35.587Z,10.73
2022-08-30T07:10:10.027Z,10.80
2022-08-30T07:10:45.318Z,11.13
2022-08-30T07:11:28.461Z,11.27
2022-08-30T07:12:06.057Z,10.77
2022-08-30T07:12:41.135Z,10.60
2022-08-30T07:13:15.253Z,9.88
2022-08-30T07:13:49.686Z,10.68
2022-08-30T07:14:25.352Z,10.93
2022-08-30T07:15:00.484Z,11.35
2022-08-30T07:15:38.137Z,11.02
2022-08-30T07:16:13.816Z,10.93
2022-08-30T07:16:47.558Z,11.40
2022-08-30T07:17:44.378Z,11.13
2022-08-30T07:18:36.684Z,11.07
2022-08-30T07:19:20.255Z,14.90
2022-08-30T07:19:59.817Z,10.98
2022-08-30T07:20:39.799Z,11.43
2022-08-30T07:21:16.219Z,10.75
2022-08-30T07:21:50.936Z,10.85
2022-08-30T07:22:24.043Z,12.18
2022-08-30T07:22:58.896Z,10.48
2022-08-30T07:23:33.305Z,11.20
2022-08-30T07:24:10.664Z,11.30
2022-08-30T07:24:44.567Z,11.18
2022-08-30T07:25:18.915Z,11.32
2022-08-30T07:25:55.605Z,11.82
2022-08-30T07:26:32.878Z,11.27
2022-08-30T07:27:08.378Z,11.98
2022-08-30T07:27:43.201Z,11.00
2022-08-30T07:28:17.906Z,11.45
2022-08-30T07:28:55.890Z,11.07
2022-08-30T07:29:33.093Z,10.65
2022-08-30T07:30:08.097Z,10.82
2022-08-30T07:30:43.425Z,11.65
2022-08-30T07:31:18.428Z,10.82
2022-08-30T07:31:55.354Z,11.07
2022-08-30T07:32:29.134Z,11.70
2022-08-30T07:33:04.180Z,11.25
2022-08-30T07:33:41.057Z,11.73
2022-08-30T07:34:15.118Z,11.07
2022-08-30T07:34:51.769Z,11.32
2022-08-30T07:35:25.217Z,11.18
2022-08-30T07:35:59.498Z,11.05
2022-08-30T07:36:37.277Z,11.80
2022-08-30T07:37:13.259Z,11.13
2022-08-30T07:37:54.066Z,11.43
2022-08-30T07:38:30.334Z,11.75
2022-08-30T07:39:06.249Z,11.13
2022-08-30T07:39:45.782Z,11.68
2022-08-30T07:40:21.002Z,11.25
2022-08-30T07:40:55.274Z,10.90
2022-08-30T07:41:31.999Z,11.88
2022-08-30T07:42:08.213Z,11.75
2022-08-30T07:42:41.772Z,10.88
2022-08-30T07:43:16.470Z,11.00
2022-08-30T07:43:49.887Z,10.48
2022-08-30T07:44:25.542Z,10.68
2022-08-30T07:44:59.954Z,10.85
2022-08-30T07:45:35.491Z,12.15
2022-08-30T07:46:09.480Z,12.63
2022-08-30T07:46:45.636Z,11.15
2022-08-30T07:47:18.993Z,11.25